• Join FlightAware (Why Join?)
  • Login
  • US Flag 
03:51AM EST


 

Airport Tracker/Info


-or-


 

Live Flight TrackerFlight Track Log ✈ N318CB ✈ 21-Jul-2013 ✈ KFNL - KMAF

Flight Track Log - Related Links

Times and Time Zones

All times are in EDT time to prevent confusion due to time zone crossing. See the N318CB flight status page for this flight to view local times or setup timezone preferences in your user account.

Time Position Orientation Groundspeed Altitude Reporting Facility
EDT Latitude Longitude Course Direction KTS MPH feet Rate Location/Type
04:11PM 40.4500 -104.9667 159° South 190 219 8,300  Level Denver TRACON
04:12PM 40.4000 -104.9500 166° South 192 221 9,500 1,320 Climbing Denver TRACON
04:13PM 40.3500 -104.9167 153° Southeast 195 224 10,900 1,260 Climbing Denver TRACON
04:14PM 40.3000 -104.8833 153° Southeast 200 230 12,100 1,200 Climbing Denver TRACON
04:15PM 40.2500 -104.8667 166° South 202 232 13,400 1,260 Climbing Denver TRACON
04:16PM 40.2167 -104.8333 143° Southeast 205 236 14,500 1,200 Climbing Denver TRACON
04:17PM 40.0485 -104.7909 159° South  Level FlightAware Approximate
04:17PM 40.1667 -104.7667 134° Southeast 210 242 15,900  Level Denver TRACON
04:18PM 40.1464 -104.7475 144° Southeast 210 242 16,400 660 Climbing Denver Center
04:19PM 40.0786 -104.7197 163° South 216 249 17,000 720 Climbing Denver Center
04:20PM 40.0094 -104.7094 174° South 247 284 18,000 1,200 Climbing Denver Center
04:21PM 39.9467 -104.6986 172° South 213 245 19,500 1,200 Climbing Denver Center
04:22PM 39.8956 -104.6889 172° South 204 235 20,600 1,020 Climbing Denver Center
04:23PM 39.8378 -104.6811 174° South 205 236 21,700 900 Climbing Denver Center
04:24PM 39.7681 -104.6681 172° South 219 252 22,700 960 Climbing Denver Center
04:25PM 39.7006 -104.6583 174° South 200 230 23,900 900 Climbing Denver Center
04:26PM 39.6447 -104.6492 173° South 202 232 24,600 480 Climbing Denver Center
04:27PM 39.5825 -104.6367 171° South 214 246 25,000 180 Climbing Denver Center
04:29PM 39.5119 -104.6256 173° South 252 290 25,000  Level Denver Center
04:30PM 39.4533 -104.6169 174° South 262 302 25,000  Level Denver Center
04:31PM 39.3636 -104.6022 173° South 273 314 25,000  Level Denver Center
04:32PM 39.2889 -104.6031 180° South 267 307 25,000  Level Denver Center
04:33PM 39.1989 -104.6078 182° South 269 310 25,000  Level Denver Center
04:34PM 39.1236 -104.6106 182° South 270 311 25,000  Level Denver Center
04:35PM 39.0506 -104.6147 183° South 263 303 25,000  Level Denver Center
04:36PM 38.9753 -104.6181 182° South 269 310 25,000  Level Denver Center
04:37PM 38.8989 -104.5911 165° South 283 326 25,000  Level Denver Center
04:39PM 38.7400 -104.5292 163° South 281 323 25,000  Level Denver Center
04:40PM 38.6442 -104.4925 163° South 281 323 25,000  Level Denver Center
04:41PM 38.5722 -104.4656 164° South 281 323 25,000  Level Denver Center
04:42PM 38.4911 -104.4361 164° South 274 315 25,000  Level Denver Center
04:43PM 38.4208 -104.4094 163° South 274 315 25,000  Level Denver Center
04:44PM 38.3378 -104.3789 164° South 276 318 25,000  Level Denver Center
04:45PM 38.2669 -104.3542 165° South 277 319 25,000  Level Denver Center
04:46PM 38.1844 -104.3228 163° South 277 319 25,000  Level Denver Center
04:47PM 38.1258 -104.3019 164° South 275 316 25,000  Level Denver Center
04:48PM 38.0306 -104.2675 164° South 277 319 25,000  Level Denver Center
04:49PM 37.9597 -104.2408 163° South 277 319 25,000  Level Denver Center
04:50PM 37.8883 -104.2153 164° South 277 319 25,000  Level Denver Center
04:51PM 37.8058 -104.1847 164° South 277 319 25,000  Level Denver Center
04:53PM 37.7350 -104.1592 164° South 277 319 25,000  Level Denver Center
04:54PM 37.6525 -104.1300 164° South 277 319 25,000  Level Denver Center
04:55PM 37.5697 -104.1017 165° South 278 320 25,000  Level Denver Center
04:56PM 37.4981 -104.0758 164° South 285 328 25,000  Level Denver Center
04:57PM 37.4158 -104.0489 165° South 279 321 25,000  Level Denver Center
04:58PM 37.3436 -104.0406 175° South 274 315 25,000  Level Denver Center
04:59PM 37.2583 -104.0328 176° South 274 315 25,000  Level Denver Center
05:00PM 37.1853 -104.0261 176° South 275 316 25,000  Level Denver Center
05:01PM 37.1008 -104.0194 176° South 273 314 25,000  Level Denver Center
05:02PM 37.0283 -104.0147 177° South 272 313 25,000  Level Denver Center
05:03PM 36.9442 -104.0094 177° South 271 312 25,000  Level Denver Center
05:04PM 36.8750 -103.9878 166° South 268 308 25,000  Level Denver Center
05:05PM 36.7936 -103.9542 162° South 273 314 25,000  Level Denver Center
05:06PM 36.7244 -103.9281 163° South 272 313 25,000  Level Denver Center
05:07PM 36.6556 -103.9019 163° South 272 313 25,000  Level Denver Center
05:08PM 36.5747 -103.8711 163° South 271 312 25,000  Level Denver Center
05:09PM 36.4828 -103.8383 164° South 267 307 25,000  Level Albuquerque Center
05:10PM 36.4103 -103.8083 162° South 270 311 25,000  Level Albuquerque Center
05:11PM 36.3381 -103.7819 164° South 269 310 25,000  Level Albuquerque Center
05:12PM 36.2661 -103.7564 164° South 267 307 25,000  Level Albuquerque Center
05:13PM 36.1947 -103.7286 163° South 265 305 25,000  Level Albuquerque Center
05:14PM 36.1228 -103.7011 163° South 266 306 25,000  Level Albuquerque Center
05:16PM 36.0506 -103.6714 162° South 269 310 25,000  Level Albuquerque Center
05:17PM 35.9681 -103.6403 163° South 265 305 25,000  Level Albuquerque Center
05:18PM 35.8950 -103.6142 164° South 268 308 25,000  Level Albuquerque Center
05:19PM 35.8233 -103.5869 163° South 266 306 25,000  Level Albuquerque Center
05:20PM 35.7517 -103.5594 163° South 267 307 25,000  Level Albuquerque Center
05:21PM 35.6803 -103.5336 164° South 265 305 25,000  Level Albuquerque Center
05:22PM 35.6075 -103.5056 163° South 268 308 25,000  Level Albuquerque Center
05:23PM 35.5361 -103.4789 163° South 267 307 25,000  Level Albuquerque Center
05:24PM 35.4644 -103.4531 164° South 266 306 25,000  Level Albuquerque Center
05:25PM 35.3931 -103.4250 162° South 265 305 25,000  Level Albuquerque Center
05:26PM 35.3103 -103.3961 164° South 263 303 25,000  Level Albuquerque Center
05:27PM 35.2400 -103.3689 162° South 261 300 25,000  Level Albuquerque Center
05:28PM 35.1675 -103.3419 163° South 266 306 25,000 -60 Level Albuquerque Center
05:29PM 35.0950 -103.3147 163° South 268 308 24,900 -60 Descending Albuquerque Center
05:30PM 35.0219 -103.2889 164° South 269 310 24,900  Level Albuquerque Center
05:31PM 34.9508 -103.2622 163° South 266 306 24,900  Level Albuquerque Center
05:32PM 34.8781 -103.2358 163° South 267 307 24,900  Level Albuquerque Center
05:33PM 34.8056 -103.2103 164° South 269 310 24,900  Level Albuquerque Center
05:34PM 34.7333 -103.1831 163° South 267 307 24,900  Level Albuquerque Center
05:35PM 34.6489 -103.1528 164° South 268 308 24,900  Level Albuquerque Center
05:36PM 34.5772 -103.1269 163° South 267 307 24,900  Level Albuquerque Center
05:37PM 34.5033 -103.1011 164° South 271 312 24,900  Level Albuquerque Center
05:38PM 34.4314 -103.0750 163° South 269 310 24,900  Level Albuquerque Center
05:39PM 34.3597 -103.0478 163° South 267 307 24,900  Level Albuquerque Center
05:40PM 34.2878 -103.0231 164° South 267 307 24,900  Level Albuquerque Center
05:41PM 34.2186 -102.9986 164° South 267 307 24,900  Level Albuquerque Center
05:42PM 34.1494 -102.9719 162° South 263 303 24,900  Level Albuquerque Center
05:43PM 34.0794 -102.9467 163° South 261 300 24,900  Level Albuquerque Center
05:44PM 33.9956 -102.9144 162° South 263 303 24,900  Level Albuquerque Center
05:45PM 33.9225 -102.8928 166° South 268 308 24,900  Level Albuquerque Center
05:46PM 33.8528 -102.8672 163° South 265 305 24,900  Level Albuquerque Center
05:47PM 33.7825 -102.8431 164° South 263 303 24,900  Level Albuquerque Center
05:48PM 33.7108 -102.8150 162° South 268 308 24,900  Level Albuquerque Center
05:50PM 33.6406 -102.7914 164° South 264 304 24,900  Level Albuquerque Center
05:51PM 33.5706 -102.7669 164° South 263 303 24,900  Level Albuquerque Center
05:52PM 33.4864 -102.7375 164° South 263 303 24,900  Level Albuquerque Center
05:53PM 33.3917 -102.7000 162° South 261 300 24,900  Level Fort Worth Center
05:54PM 33.3214 -102.6833 169° South 261 300 24,900  Level Fort Worth Center
05:55PM 33.2539 -102.6569 162° South 261 300 24,900 -540 Level Fort Worth Center
05:56PM 33.1817 -102.6328 164° South 261 300 23,900 -960 Descending Fort Worth Center
05:57PM 33.1056 -102.6061 164° South 266 306 23,000 -900 Descending Fort Worth Center
05:58PM 33.0294 -102.5794 164° South 278 320 22,100 -900 Descending Fort Worth Center
05:59PM 32.9494 -102.5475 161° South 299 344 21,200 -960 Descending Fort Worth Center
06:00PM 32.8775 -102.5236 164° South 276 318 20,200 -1,020 Descending Fort Worth Center
06:01PM 32.8033 -102.4994 165° South 276 318 19,200 -960 Descending Fort Worth Center
06:02PM 32.7292 -102.4731 163° South 276 318 18,300 -1,080 Descending Fort Worth Center
06:03PM 32.6569 -102.4517 166° South 283 326 17,100 -1,440 Descending Fort Worth Center
06:04PM 32.5786 -102.4278 166° South 288 331 15,500 -1,680 Descending Fort Worth Center
06:05PM 32.4983 -102.3986 163° South 298 343 13,800 -1,680 Descending Fort Worth Center
06:06PM 32.4203 -102.3697 163° South 298 343 12,200 -1,680 Descending Fort Worth Center
06:07PM 32.3400 -102.3406 163° South 298 343 10,500 -1,740 Descending Fort Worth Center
06:08PM 32.2658 -102.3169 165° South 292 336 8,800 -1,560 Descending Fort Worth Center
06:09PM 32.1917 -102.2908 163° South 286 329 7,400 -1,380 Descending Fort Worth Center
06:10PM 32.1236 -102.2675 164° South 274 315 6,100 -1,260 Descending Fort Worth Center
06:11PM 32.0558 -102.2419 162° South 264 304 4,900 -1,140 Descending Fort Worth Center
06:12PM 31.9942 -102.2117 157° South 254 292 3,900 -900 Descending Fort Worth Center
06:13PM 31.9531 -102.1997 166° South 204 235 3,100 5,040 Descending Fort Worth Center
06:14PM 31.8811 -102.1692 160° South 204 235 14,000 5,400 Climbing Fort Worth Center
06:15PM 31.8256 -102.1492 163° South 204 235 14,000  Level Fort Worth Center